sensor_id;sensor_type;location;lat;lon;timestamp;temperature;humidity
1367;DHT22;16877;48.810;9.282;2023-04-24T00:02:14;21.50;50.90
1367;DHT22;16877;48.810;9.282;2023-04-24T00:04:43;21.70;50.60
1367;DHT22;16877;48.810;9.282;2023-04-24T00:07:11;21.60;50.40
1367;DHT22;16877;48.810;9.282;2023-04-24T00:09:39;21.50;50.40
1367;DHT22;16877;48.810;9.282;2023-04-24T00:12:07;21.70;50.50
1367;DHT22;16877;48.810;9.282;2023-04-24T00:14:34;21.70;50.90
1367;DHT22;16877;48.810;9.282;2023-04-24T00:17:02;21.50;50.50
1367;DHT22;16877;48.810;9.282;2023-04-24T00:19:30;21.60;50.40
1367;DHT22;16877;48.810;9.282;2023-04-24T00:21:59;21.50;50.30
1367;DHT22;16877;48.810;9.282;2023-04-24T00:24:26;21.40;50.70
1367;DHT22;16877;48.810;9.282;2023-04-24T00:26:54;21.40;50.60
1367;DHT22;16877;48.810;9.282;2023-04-24T00:29:21;21.50;50.70
1367;DHT22;16877;48.810;9.282;2023-04-24T00:31:49;21.50;50.80
1367;DHT22;16877;48.810;9.282;2023-04-24T00:34:16;21.40;51.00
1367;DHT22;16877;48.810;9.282;2023-04-24T00:36:44;21.50;50.90
1367;DHT22;16877;48.810;9.282;2023-04-24T00:39:13;21.50;51.00
1367;DHT22;16877;48.810;9.282;2023-04-24T00:41:41;21.60;51.40
1367;DHT22;16877;48.810;9.282;2023-04-24T00:44:09;21.50;51.30
1367;DHT22;16877;48.810;9.282;2023-04-24T00:46:36;21.50;51.10
1367;DHT22;16877;48.810;9.282;2023-04-24T00:49:04;21.50;51.00
1367;DHT22;16877;48.810;9.282;2023-04-24T00:51:32;21.60;50.90
1367;DHT22;16877;48.810;9.282;2023-04-24T00:54:00;21.50;50.70
1367;DHT22;16877;48.810;9.282;2023-04-24T00:56:29;21.40;50.90
1367;DHT22;16877;48.810;9.282;2023-04-24T00:58:58;21.50;50.90
1367;DHT22;16877;48.810;9.282;2023-04-24T01:01:26;21.40;51.70
1367;DHT22;16877;48.810;9.282;2023-04-24T01:03:55;21.50;51.30
1367;DHT22;16877;48.810;9.282;2023-04-24T01:06:28;21.50;51.00
1367;DHT22;16877;48.810;9.282;2023-04-24T01:08:57;21.50;51.50
1367;DHT22;16877;48.810;9.282;2023-04-24T01:11:26;21.60;51.10
1367;DHT22;16877;48.810;9.282;2023-04-24T01:13:55;21.50;50.80
1367;DHT22;16877;48.810;9.282;2023-04-24T01:16:24;21.50;50.90
1367;DHT22;16877;48.810;9.282;2023-04-24T01:18:51;21.50;51.10
1367;DHT22;16877;48.810;9.282;2023-04-24T01:21:21;21.60;50.80
1367;DHT22;16877;48.810;9.282;2023-04-24T01:23:50;21.40;50.90
1367;DHT22;16877;48.810;9.282;2023-04-24T01:26:19;21.50;50.90
1367;DHT22;16877;48.810;9.282;2023-04-24T01:28:46;21.50;50.80
1367;DHT22;16877;48.810;9.282;2023-04-24T01:31:14;21.40;51.10
1367;DHT22;16877;48.810;9.282;2023-04-24T01:33:42;21.70;51.20
1367;DHT22;16877;48.810;9.282;2023-04-24T01:36:11;21.50;50.70
1367;DHT22;16877;48.810;9.282;2023-04-24T01:38:38;21.50;50.90
1367;DHT22;16877;48.810;9.282;2023-04-24T01:41:07;21.60;51.10
1367;DHT22;16877;48.810;9.282;2023-04-24T01:43:34;21.70;50.80
1367;DHT22;16877;48.810;9.282;2023-04-24T01:46:16;21.50;50.80
1367;DHT22;16877;48.810;9.282;2023-04-24T01:48:44;21.50;50.70
1367;DHT22;16877;48.810;9.282;2023-04-24T01:51:12;21.40;51.40
1367;DHT22;16877;48.810;9.282;2023-04-24T01:53:39;21.50;50.90
1367;DHT22;16877;48.810;9.282;2023-04-24T01:56:08;21.50;51.90
1367;DHT22;16877;48.810;9.282;2023-04-24T01:58:36;21.50;52.20
1367;DHT22;16877;48.810;9.282;2023-04-24T02:01:05;21.60;52.10
1367;DHT22;16877;48.810;9.282;2023-04-24T02:03:33;21.40;51.40
1367;DHT22;16877;48.810;9.282;2023-04-24T02:06:00;21.50;51.40
1367;DHT22;16877;48.810;9.282;2023-04-24T02:08:28;21.50;51.90
1367;DHT22;16877;48.810;9.282;2023-04-24T02:10:55;21.50;51.80
1367;DHT22;16877;48.810;9.282;2023-04-24T02:13:24;21.60;52.00
1367;DHT22;16877;48.810;9.282;2023-04-24T02:15:52;21.70;51.70
1367;DHT22;16877;48.810;9.282;2023-04-24T02:18:19;21.50;51.90
1367;DHT22;16877;48.810;9.282;2023-04-24T02:20:48;21.40;52.00
1367;DHT22;16877;48.810;9.282;2023-04-24T02:23:15;21.50;52.10
1367;DHT22;16877;48.810;9.282;2023-04-24T02:25:43;21.50;52.90
1367;DHT22;16877;48.810;9.282;2023-04-24T02:28:11;21.50;52.40
1367;DHT22;16877;48.810;9.282;2023-04-24T02:30:40;21.60;52.40
1367;DHT22;16877;48.810;9.282;2023-04-24T02:33:08;21.40;52.80
1367;DHT22;16877;48.810;9.282;2023-04-24T02:35:35;21.40;54.00
1367;DHT22;16877;48.810;9.282;2023-04-24T02:38:03;21.30;54.00
1367;DHT22;16877;48.810;9.282;2023-04-24T02:40:30;21.20;56.80
1367;DHT22;16877;48.810;9.282;2023-04-24T02:42:58;21.40;66.70
1367;DHT22;16877;48.810;9.282;2023-04-24T02:45:25;21.30;56.20
1367;DHT22;16877;48.810;9.282;2023-04-24T02:47:54;21.30;55.80
1367;DHT22;16877;48.810;9.282;2023-04-24T02:50:21;21.10;57.30
1367;DHT22;16877;48.810;9.282;2023-04-24T02:52:49;21.30;59.70
1367;DHT22;16877;48.810;9.282;2023-04-24T02:55:16;21.40;52.50
1367;DHT22;16877;48.810;9.282;2023-04-24T02:57:44;21.40;53.00
1367;DHT22;16877;48.810;9.282;2023-04-24T03:00:12;21.20;52.30
1367;DHT22;16877;48.810;9.282;2023-04-24T03:02:39;21.30;52.50
1367;DHT22;16877;48.810;9.282;2023-04-24T03:05:10;21.30;53.50
1367;DHT22;16877;48.810;9.282;2023-04-24T03:07:37;21.20;52.40
1367;DHT22;16877;48.810;9.282;2023-04-24T03:10:06;21.40;52.20
1367;DHT22;16877;48.810;9.282;2023-04-24T03:12:34;21.40;52.40
1367;DHT22;16877;48.810;9.282;2023-04-24T03:15:01;21.30;52.70
1367;DHT22;16877;48.810;9.282;2023-04-24T03:17:28;21.40;52.80
1367;DHT22;16877;48.810;9.282;2023-04-24T03:19:56;21.10;52.50
1367;DHT22;16877;48.810;9.282;2023-04-24T03:22:26;21.30;52.70
1367;DHT22;16877;48.810;9.282;2023-04-24T03:24:53;21.20;53.20
1367;DHT22;16877;48.810;9.282;2023-04-24T03:27:22;21.20;52.60
1367;DHT22;16877;48.810;9.282;2023-04-24T03:29:49;21.30;52.30
1367;DHT22;16877;48.810;9.282;2023-04-24T03:32:20;21.20;51.90
1367;DHT22;16877;48.810;9.282;2023-04-24T03:34:47;21.10;51.80
1367;DHT22;16877;48.810;9.282;2023-04-24T03:37:15;21.10;51.90
1367;DHT22;16877;48.810;9.282;2023-04-24T03:39:45;21.10;51.90
1367;DHT22;16877;48.810;9.282;2023-04-24T03:42:13;21.10;52.00
1367;DHT22;16877;48.810;9.282;2023-04-24T03:44:41;21.10;52.00
1367;DHT22;16877;48.810;9.282;2023-04-24T03:47:08;21.20;52.00
1367;DHT22;16877;48.810;9.282;2023-04-24T03:49:36;21.10;52.00
1367;DHT22;16877;48.810;9.282;2023-04-24T03:52:03;21.10;52.00
1367;DHT22;16877;48.810;9.282;2023-04-24T03:54:31;21.10;51.90
1367;DHT22;16877;48.810;9.282;2023-04-24T03:57:00;21.10;51.90
1367;DHT22;16877;48.810;9.282;2023-04-24T03:59:29;21.10;52.00
1367;DHT22;16877;48.810;9.282;2023-04-24T04:01:57;20.90;52.00
1367;DHT22;16877;48.810;9.282;2023-04-24T04:04:24;20.80;52.00
1367;DHT22;16877;48.810;9.282;2023-04-24T04:06:51;20.90;52.10
1367;DHT22;16877;48.810;9.282;2023-04-24T04:09:18;20.80;52.00
1367;DHT22;16877;48.810;9.282;2023-04-24T04:11:46;20.80;52.00
1367;DHT22;16877;48.810;9.282;2023-04-24T04:14:15;20.70;51.90
1367;DHT22;16877;48.810;9.282;2023-04-24T04:16:42;20.70;52.00
1367;DHT22;16877;48.810;9.282;2023-04-24T04:19:10;20.60;52.10
1367;DHT22;16877;48.810;9.282;2023-04-24T04:21:37;20.60;52.30
1367;DHT22;16877;48.810;9.282;2023-04-24T04:24:05;20.50;52.30
1367;DHT22;16877;48.810;9.282;2023-04-24T04:26:32;20.50;53.00
1367;DHT22;16877;48.810;9.282;2023-04-24T04:29:01;20.50;52.50
1367;DHT22;16877;48.810;9.282;2023-04-24T04:31:30;20.50;52.50
1367;DHT22;16877;48.810;9.282;2023-04-24T04:33:58;20.50;52.60
1367;DHT22;16877;48.810;9.282;2023-04-24T04:36:27;20.60;52.70
1367;DHT22;16877;48.810;9.282;2023-04-24T04:38:55;20.50;52.90
1367;DHT22;16877;48.810;9.282;2023-04-24T04:41:25;20.50;52.90
1367;DHT22;16877;48.810;9.282;2023-04-24T04:43:52;20.40;52.90
1367;DHT22;16877;48.810;9.282;2023-04-24T04:46:20;20.50;52.90
1367;DHT22;16877;48.810;9.282;2023-04-24T04:48:53;20.60;52.90
1367;DHT22;16877;48.810;9.282;2023-04-24T04:51:22;20.50;52.70
1367;DHT22;16877;48.810;9.282;2023-04-24T04:53:50;20.50;52.50
1367;DHT22;16877;48.810;9.282;2023-04-24T04:56:18;20.50;52.20
1367;DHT22;16877;48.810;9.282;2023-04-24T04:58:45;20.50;52.00
1367;DHT22;16877;48.810;9.282;2023-04-24T05:01:13;20.50;51.80
1367;DHT22;16877;48.810;9.282;2023-04-24T05:03:40;20.50;51.70
1367;DHT22;16877;48.810;9.282;2023-04-24T05:06:14;20.50;51.60
1367;DHT22;16877;48.810;9.282;2023-04-24T05:08:42;20.50;51.50
1367;DHT22;16877;48.810;9.282;2023-04-24T05:11:09;20.60;51.50
1367;DHT22;16877;48.810;9.282;2023-04-24T05:13:36;20.60;51.40
1367;DHT22;16877;48.810;9.282;2023-04-24T05:16:04;20.50;51.10
1367;DHT22;16877;48.810;9.282;2023-04-24T05:18:32;20.50;51.10
1367;DHT22;16877;48.810;9.282;2023-04-24T05:20:59;20.60;51.10
1367;DHT22;16877;48.810;9.282;2023-04-24T05:23:29;20.60;51.00
1367;DHT22;16877;48.810;9.282;2023-04-24T05:25:56;20.60;50.90
1367;DHT22;16877;48.810;9.282;2023-04-24T05:28:25;20.50;50.70
1367;DHT22;16877;48.810;9.282;2023-04-24T05:30:54;20.50;50.70
1367;DHT22;16877;48.810;9.282;2023-04-24T05:33:23;20.60;50.70
1367;DHT22;16877;48.810;9.282;2023-04-24T05:35:53;20.60;50.60
1367;DHT22;16877;48.810;9.282;2023-04-24T05:38:24;20.50;50.50
1367;DHT22;16877;48.810;9.282;2023-04-24T05:40:55;20.60;50.50
1367;DHT22;16877;48.810;9.282;2023-04-24T05:43:23;20.50;50.40
1367;DHT22;16877;48.810;9.282;2023-04-24T05:45:51;20.60;50.50
1367;DHT22;16877;48.810;9.282;2023-04-24T05:48:19;20.60;50.40
1367;DHT22;16877;48.810;9.282;2023-04-24T05:50:47;20.70;50.50
1367;DHT22;16877;48.810;9.282;2023-04-24T05:53:14;20.70;50.40
1367;DHT22;16877;48.810;9.282;2023-04-24T05:55:42;20.80;50.40
1367;DHT22;16877;48.810;9.282;2023-04-24T05:58:11;20.90;50.50
1367;DHT22;16877;48.810;9.282;2023-04-24T06:00:38;20.90;50.40
1367;DHT22;16877;48.810;9.282;2023-04-24T06:03:08;20.90;50.30
1367;DHT22;16877;48.810;9.282;2023-04-24T06:05:35;21.00;53.90
1367;DHT22;16877;48.810;9.282;2023-04-24T06:08:03;21.40;56.10
1367;DHT22;16877;48.810;9.282;2023-04-24T06:10:30;21.80;55.70
1367;DHT22;16877;48.810;9.282;2023-04-24T06:12:58;22.10;55.20
1367;DHT22;16877;48.810;9.282;2023-04-24T06:15:29;22.40;54.80
1367;DHT22;16877;48.810;9.282;2023-04-24T06:17:57;22.70;54.30
1367;DHT22;16877;48.810;9.282;2023-04-24T06:20:25;22.90;53.90
1367;DHT22;16877;48.810;9.282;2023-04-24T06:22:52;23.00;53.50
1367;DHT22;16877;48.810;9.282;2023-04-24T06:25:20;23.20;53.20
1367;DHT22;16877;48.810;9.282;2023-04-24T06:27:48;23.40;52.90
1367;DHT22;16877;48.810;9.282;2023-04-24T06:30:20;23.50;52.60
1367;DHT22;16877;48.810;9.282;2023-04-24T06:32:49;23.70;52.40
1367;DHT22;16877;48.810;9.282;2023-04-24T06:35:17;23.90;52.10
1367;DHT22;16877;48.810;9.282;2023-04-24T06:37:46;24.00;51.80
1367;DHT22;16877;48.810;9.282;2023-04-24T06:40:14;24.20;51.70
1367;DHT22;16877;48.810;9.282;2023-04-24T06:42:41;24.30;51.50
1367;DHT22;16877;48.810;9.282;2023-04-24T06:45:09;24.40;51.40
1367;DHT22;16877;48.810;9.282;2023-04-24T06:47:37;24.50;51.30
1367;DHT22;16877;48.810;9.282;2023-04-24T06:50:09;24.50;51.00
1367;DHT22;16877;48.810;9.282;2023-04-24T06:52:37;24.60;50.80
1367;DHT22;16877;48.810;9.282;2023-04-24T06:55:07;24.70;50.70
1367;DHT22;16877;48.810;9.282;2023-04-24T06:57:34;24.80;50.50
1367;DHT22;16877;48.810;9.282;2023-04-24T07:00:11;24.90;50.30
1367;DHT22;16877;48.810;9.282;2023-04-24T07:02:38;25.00;50.10
1367;DHT22;16877;48.810;9.282;2023-04-24T07:05:08;25.10;49.90
1367;DHT22;16877;48.810;9.282;2023-04-24T07:07:36;25.20;49.70
1367;DHT22;16877;48.810;9.282;2023-04-24T07:10:07;25.30;49.60
1367;DHT22;16877;48.810;9.282;2023-04-24T07:12:35;25.30;47.40
1367;DHT22;16877;48.810;9.282;2023-04-24T07:15:03;25.20;46.50
1367;DHT22;16877;48.810;9.282;2023-04-24T07:17:31;25.20;46.00
1367;DHT22;16877;48.810;9.282;2023-04-24T07:19:59;25.00;45.50
1367;DHT22;16877;48.810;9.282;2023-04-24T07:22:28;24.70;45.10
1367;DHT22;16877;48.810;9.282;2023-04-24T07:24:55;24.50;44.50
1367;DHT22;16877;48.810;9.282;2023-04-24T07:27:24;24.20;44.30
1367;DHT22;16877;48.810;9.282;2023-04-24T07:29:52;24.00;44.60
1367;DHT22;16877;48.810;9.282;2023-04-24T07:32:20;23.90;44.50
1367;DHT22;16877;48.810;9.282;2023-04-24T07:34:53;23.80;44.70
1367;DHT22;16877;48.810;9.282;2023-04-24T07:37:21;23.50;44.10
1367;DHT22;16877;48.810;9.282;2023-04-24T07:39:50;23.30;44.20
1367;DHT22;16877;48.810;9.282;2023-04-24T07:42:17;23.00;44.40
1367;DHT22;16877;48.810;9.282;2023-04-24T07:44:45;23.00;44.50
1367;DHT22;16877;48.810;9.282;2023-04-24T07:47:13;23.10;44.50
1367;DHT22;16877;48.810;9.282;2023-04-24T07:49:41;23.10;44.50
1367;DHT22;16877;48.810;9.282;2023-04-24T07:52:09;23.30;44.60
1367;DHT22;16877;48.810;9.282;2023-04-24T07:54:37;23.40;44.50
1367;DHT22;16877;48.810;9.282;2023-04-24T07:57:07;23.40;46.90
1367;DHT22;16877;48.810;9.282;2023-04-24T07:59:34;23.50;44.60
1367;DHT22;16877;48.810;9.282;2023-04-24T08:02:02;23.40;43.70
1367;DHT22;16877;48.810;9.282;2023-04-24T08:04:31;23.20;42.60
1367;DHT22;16877;48.810;9.282;2023-04-24T08:07:11;23.00;41.80
1367;DHT22;16877;48.810;9.282;2023-04-24T08:09:48;22.70;41.20
1367;DHT22;16877;48.810;9.282;2023-04-24T08:12:18;22.60;41.20
1367;DHT22;16877;48.810;9.282;2023-04-24T08:14:51;22.50;41.50
1367;DHT22;16877;48.810;9.282;2023-04-24T08:17:25;22.30;41.40
1367;DHT22;16877;48.810;9.282;2023-04-24T08:20:02;22.30;41.90
1367;DHT22;16877;48.810;9.282;2023-04-24T08:22:31;22.40;41.60
1367;DHT22;16877;48.810;9.282;2023-04-24T08:25:07;22.30;41.50
1367;DHT22;16877;48.810;9.282;2023-04-24T08:27:51;22.30;41.60
1367;DHT22;16877;48.810;9.282;2023-04-24T08:30:29;22.60;41.80
1367;DHT22;16877;48.810;9.282;2023-04-24T08:33:00;22.90;41.80
1367;DHT22;16877;48.810;9.282;2023-04-24T08:35:28;23.20;41.70
1367;DHT22;16877;48.810;9.282;2023-04-24T08:38:19;23.20;40.60
1367;DHT22;16877;48.810;9.282;2023-04-24T08:40:50;23.20;39.80
1367;DHT22;16877;48.810;9.282;2023-04-24T08:43:37;23.20;39.80
1367;DHT22;16877;48.810;9.282;2023-04-24T08:46:10;23.30;39.90
1367;DHT22;16877;48.810;9.282;2023-04-24T08:48:53;23.40;40.30
1367;DHT22;16877;48.810;9.282;2023-04-24T08:51:24;23.60;39.90
1367;DHT22;16877;48.810;9.282;2023-04-24T08:53:58;23.40;39.50
1367;DHT22;16877;48.810;9.282;2023-04-24T08:56:26;23.10;39.30
1367;DHT22;16877;48.810;9.282;2023-04-24T08:58:59;22.90;39.50
1367;DHT22;16877;48.810;9.282;2023-04-24T09:01:27;22.60;39.80
1367;DHT22;16877;48.810;9.282;2023-04-24T09:03:55;22.50;39.90
1367;DHT22;16877;48.810;9.282;2023-04-24T09:06:23;22.20;39.60
1367;DHT22;16877;48.810;9.282;2023-04-24T09:08:53;22.10;39.70
1367;DHT22;16877;48.810;9.282;2023-04-24T09:11:21;21.90;40.20
1367;DHT22;16877;48.810;9.282;2023-04-24T09:13:50;21.90;40.60
1367;DHT22;16877;48.810;9.282;2023-04-24T09:16:20;22.00;41.20
1367;DHT22;16877;48.810;9.282;2023-04-24T09:18:48;21.90;41.70
1367;DHT22;16877;48.810;9.282;2023-04-24T09:21:16;21.80;41.70
1367;DHT22;16877;48.810;9.282;2023-04-24T09:23:43;21.80;41.70
1367;DHT22;16877;48.810;9.282;2023-04-24T09:26:11;21.90;45.10
1367;DHT22;16877;48.810;9.282;2023-04-24T09:28:40;21.80;43.10
1367;DHT22;16877;48.810;9.282;2023-04-24T09:31:11;21.80;42.50
1367;DHT22;16877;48.810;9.282;2023-04-24T09:33:53;21.70;42.40
1367;DHT22;16877;48.810;9.282;2023-04-24T09:36:27;21.60;42.30
1367;DHT22;16877;48.810;9.282;2023-04-24T09:38:57;21.40;42.70
1367;DHT22;16877;48.810;9.282;2023-04-24T09:41:26;21.30;43.20
1367;DHT22;16877;48.810;9.282;2023-04-24T09:43:54;21.20;43.60
1367;DHT22;16877;48.810;9.282;2023-04-24T09:46:29;21.20;44.10
1367;DHT22;16877;48.810;9.282;2023-04-24T09:49:08;21.30;44.30
1367;DHT22;16877;48.810;9.282;2023-04-24T09:51:37;21.50;44.30
1367;DHT22;16877;48.810;9.282;2023-04-24T09:54:13;21.90;44.20
1367;DHT22;16877;48.810;9.282;2023-04-24T09:56:43;22.60;44.20
1367;DHT22;16877;48.810;9.282;2023-04-24T09:59:12;22.70;43.80
1367;DHT22;16877;48.810;9.282;2023-04-24T10:01:44;22.70;43.20
1367;DHT22;16877;48.810;9.282;2023-04-24T10:04:20;22.70;42.40
1367;DHT22;16877;48.810;9.282;2023-04-24T10:06:51;22.50;41.70
1367;DHT22;16877;48.810;9.282;2023-04-24T10:09:22;22.30;41.60
1367;DHT22;16877;48.810;9.282;2023-04-24T10:11:54;22.10;41.40
1367;DHT22;16877;48.810;9.282;2023-04-24T10:14:24;22.10;41.40
1367;DHT22;16877;48.810;9.282;2023-04-24T10:16:55;22.10;41.40
1367;DHT22;16877;48.810;9.282;2023-04-24T10:19:33;22.00;41.10
1367;DHT22;16877;48.810;9.282;2023-04-24T10:22:04;22.10;45.60
1367;DHT22;16877;48.810;9.282;2023-04-24T10:24:56;22.30;45.90
1367;DHT22;16877;48.810;9.282;2023-04-24T10:27:27;23.00;43.50
1367;DHT22;16877;48.810;9.282;2023-04-24T10:30:10;23.60;41.30
1367;DHT22;16877;48.810;9.282;2023-04-24T10:32:56;24.00;40.50
1367;DHT22;16877;48.810;9.282;2023-04-24T10:35:35;24.10;39.00
1367;DHT22;16877;48.810;9.282;2023-04-24T10:38:09;23.90;37.90
1367;DHT22;16877;48.810;9.282;2023-04-24T10:40:39;23.60;37.70
1367;DHT22;16877;48.810;9.282;2023-04-24T10:43:09;23.50;37.90
1367;DHT22;16877;48.810;9.282;2023-04-24T10:46:00;23.30;37.60
1367;DHT22;16877;48.810;9.282;2023-04-24T10:48:28;23.10;37.60
1367;DHT22;16877;48.810;9.282;2023-04-24T10:51:00;23.00;37.80
1367;DHT22;16877;48.810;9.282;2023-04-24T10:53:31;22.90;37.60
1367;DHT22;16877;48.810;9.282;2023-04-24T10:56:04;22.70;37.40
1367;DHT22;16877;48.810;9.282;2023-04-24T10:58:38;22.40;37.60
1367;DHT22;16877;48.810;9.282;2023-04-24T11:01:23;22.30;38.00
1367;DHT22;16877;48.810;9.282;2023-04-24T11:03:54;22.20;38.00
1367;DHT22;16877;48.810;9.282;2023-04-24T11:06:30;22.00;38.50
1367;DHT22;16877;48.810;9.282;2023-04-24T11:09:06;22.00;38.70
1367;DHT22;16877;48.810;9.282;2023-04-24T11:11:35;22.10;39.00
1367;DHT22;16877;48.810;9.282;2023-04-24T11:14:06;22.20;38.70
1367;DHT22;16877;48.810;9.282;2023-04-24T11:16:35;22.10;38.80
1367;DHT22;16877;48.810;9.282;2023-04-24T11:19:05;22.10;39.00
1367;DHT22;16877;48.810;9.282;2023-04-24T11:21:39;22.10;38.60
1367;DHT22;16877;48.810;9.282;2023-04-24T11:24:28;21.90;38.90
1367;DHT22;16877;48.810;9.282;2023-04-24T11:26:57;21.90;39.10
1367;DHT22;16877;48.810;9.282;2023-04-24T11:29:42;21.70;38.90
1367;DHT22;16877;48.810;9.282;2023-04-24T11:32:23;21.60;39.30
1367;DHT22;16877;48.810;9.282;2023-04-24T11:34:53;21.60;39.40
1367;DHT22;16877;48.810;9.282;2023-04-24T11:37:22;21.70;39.80
1367;DHT22;16877;48.810;9.282;2023-04-24T11:39:52;21.90;39.60
1367;DHT22;16877;48.810;9.282;2023-04-24T11:42:21;22.10;39.50
1367;DHT22;16877;48.810;9.282;2023-04-24T11:44:49;22.30;39.30
1367;DHT22;16877;48.810;9.282;2023-04-24T11:47:17;22.40;39.20
1367;DHT22;16877;48.810;9.282;2023-04-24T11:49:44;22.50;39.20
1367;DHT22;16877;48.810;9.282;2023-04-24T11:52:15;22.50;38.70
1367;DHT22;16877;48.810;9.282;2023-04-24T11:54:48;22.50;38.70
1367;DHT22;16877;48.810;9.282;2023-04-24T11:57:16;22.50;38.80
1367;DHT22;16877;48.810;9.282;2023-04-24T11:59:43;22.50;38.80
1367;DHT22;16877;48.810;9.282;2023-04-24T12:02:20;22.50;38.90
1367;DHT22;16877;48.810;9.282;2023-04-24T12:04:48;22.50;39.10
1367;DHT22;16877;48.810;9.282;2023-04-24T12:07:15;22.50;39.10
1367;DHT22;16877;48.810;9.282;2023-04-24T12:09:43;22.60;39.70
1367;DHT22;16877;48.810;9.282;2023-04-24T12:12:14;22.70;40.30
1367;DHT22;16877;48.810;9.282;2023-04-24T12:14:47;22.90;40.40
1367;DHT22;16877;48.810;9.282;2023-04-24T12:17:15;22.90;40.00
1367;DHT22;16877;48.810;9.282;2023-04-24T12:19:46;22.90;39.60
1367;DHT22;16877;48.810;9.282;2023-04-24T12:22:14;22.80;39.20
1367;DHT22;16877;48.810;9.282;2023-04-24T12:24:57;22.80;39.20
1367;DHT22;16877;48.810;9.282;2023-04-24T12:27:28;22.70;39.20
1367;DHT22;16877;48.810;9.282;2023-04-24T12:29:56;22.70;39.10
1367;DHT22;16877;48.810;9.282;2023-04-24T12:32:24;22.60;39.00
1367;DHT22;16877;48.810;9.282;2023-04-24T12:34:52;22.50;39.10
1367;DHT22;16877;48.810;9.282;2023-04-24T12:37:20;22.50;39.20
1367;DHT22;16877;48.810;9.282;2023-04-24T12:40:00;22.50;39.10
1367;DHT22;16877;48.810;9.282;2023-04-24T12:42:30;22.50;38.80
1367;DHT22;16877;48.810;9.282;2023-04-24T12:44:58;22.50;38.90
1367;DHT22;16877;48.810;9.282;2023-04-24T12:47:27;22.50;39.00
1367;DHT22;16877;48.810;9.282;2023-04-24T12:49:54;22.50;38.90
1367;DHT22;16877;48.810;9.282;2023-04-24T12:52:21;22.40;38.80
1367;DHT22;16877;48.810;9.282;2023-04-24T12:54:49;22.50;38.70
1367;DHT22;16877;48.810;9.282;2023-04-24T12:57:16;22.40;38.70
1367;DHT22;16877;48.810;9.282;2023-04-24T12:59:45;22.40;38.70
1367;DHT22;16877;48.810;9.282;2023-04-24T13:02:13;22.20;38.60
1367;DHT22;16877;48.810;9.282;2023-04-24T13:04:43;22.10;38.60
1367;DHT22;16877;48.810;9.282;2023-04-24T13:07:11;22.00;38.90
1367;DHT22;16877;48.810;9.282;2023-04-24T13:09:39;21.90;38.90
1367;DHT22;16877;48.810;9.282;2023-04-24T13:12:06;21.80;39.10
1367;DHT22;16877;48.810;9.282;2023-04-24T13:14:34;21.60;40.20
1367;DHT22;16877;48.810;9.282;2023-04-24T13:17:02;21.40;42.00
1367;DHT22;16877;48.810;9.282;2023-04-24T13:19:35;21.10;43.10
1367;DHT22;16877;48.810;9.282;2023-04-24T13:22:09;21.10;44.70
1367;DHT22;16877;48.810;9.282;2023-04-24T13:24:37;21.40;44.70
1367;DHT22;16877;48.810;9.282;2023-04-24T13:27:05;21.80;44.90
1367;DHT22;16877;48.810;9.282;2023-04-24T13:29:32;22.40;44.80
1367;DHT22;16877;48.810;9.282;2023-04-24T13:32:02;23.10;44.70
1367;DHT22;16877;48.810;9.282;2023-04-24T13:34:34;23.20;43.90
1367;DHT22;16877;48.810;9.282;2023-04-24T13:37:03;23.10;43.30
1367;DHT22;16877;48.810;9.282;2023-04-24T13:39:30;23.20;43.00
1367;DHT22;16877;48.810;9.282;2023-04-24T13:41:58;23.30;42.60
1367;DHT22;16877;48.810;9.282;2023-04-24T13:44:26;23.20;42.20
1367;DHT22;16877;48.810;9.282;2023-04-24T13:46:55;23.10;41.90
1367;DHT22;16877;48.810;9.282;2023-04-24T13:49:25;23.20;41.80
1367;DHT22;16877;48.810;9.282;2023-04-24T13:51:53;23.20;41.50
1367;DHT22;16877;48.810;9.282;2023-04-24T13:54:21;23.10;41.30
1367;DHT22;16877;48.810;9.282;2023-04-24T13:56:51;23.10;41.20
1367;DHT22;16877;48.810;9.282;2023-04-24T13:59:20;23.10;41.20
1367;DHT22;16877;48.810;9.282;2023-04-24T14:01:48;23.00;40.80
1367;DHT22;16877;48.810;9.282;2023-04-24T14:04:16;22.60;40.60
1367;DHT22;16877;48.810;9.282;2023-04-24T14:06:45;22.40;41.80
1367;DHT22;16877;48.810;9.282;2023-04-24T14:09:12;22.40;43.10
1367;DHT22;16877;48.810;9.282;2023-04-24T14:11:39;22.30;43.80
1367;DHT22;16877;48.810;9.282;2023-04-24T14:14:07;22.50;44.20
1367;DHT22;16877;48.810;9.282;2023-04-24T14:16:34;22.70;44.40
1367;DHT22;16877;48.810;9.282;2023-04-24T14:19:02;22.80;44.40
1367;DHT22;16877;48.810;9.282;2023-04-24T14:21:32;22.90;44.30
1367;DHT22;16877;48.810;9.282;2023-04-24T14:24:02;23.40;44.30
1367;DHT22;16877;48.810;9.282;2023-04-24T14:26:30;23.80;44.30
1367;DHT22;16877;48.810;9.282;2023-04-24T14:28:58;23.90;43.80
1367;DHT22;16877;48.810;9.282;2023-04-24T14:31:26;24.20;43.40
1367;DHT22;16877;48.810;9.282;2023-04-24T14:33:53;24.60;42.80
1367;DHT22;16877;48.810;9.282;2023-04-24T14:36:20;24.60;41.90
1367;DHT22;16877;48.810;9.282;2023-04-24T14:38:48;25.00;41.80
1367;DHT22;16877;48.810;9.282;2023-04-24T14:41:17;25.30;41.80
1367;DHT22;16877;48.810;9.282;2023-04-24T14:43:45;25.70;41.30
1367;DHT22;16877;48.810;9.282;2023-04-24T14:46:13;25.80;39.90
1367;DHT22;16877;48.810;9.282;2023-04-24T14:48:50;25.60;39.40
1367;DHT22;16877;48.810;9.282;2023-04-24T14:51:18;25.80;39.20
1367;DHT22;16877;48.810;9.282;2023-04-24T14:53:45;25.40;39.10
1367;DHT22;16877;48.810;9.282;2023-04-24T14:56:13;25.20;39.40
1367;DHT22;16877;48.810;9.282;2023-04-24T14:58:43;25.00;39.30
1367;DHT22;16877;48.810;9.282;2023-04-24T15:01:10;25.00;39.60
1367;DHT22;16877;48.810;9.282;2023-04-24T15:03:38;25.00;39.70
1367;DHT22;16877;48.810;9.282;2023-04-24T15:06:09;25.00;39.70
1367;DHT22;16877;48.810;9.282;2023-04-24T15:08:39;25.20;39.70
1367;DHT22;16877;48.810;9.282;2023-04-24T15:11:08;25.40;39.60
1367;DHT22;16877;48.810;9.282;2023-04-24T15:13:50;25.70;39.30
1367;DHT22;16877;48.810;9.282;2023-04-24T15:16:18;26.10;39.20
1367;DHT22;16877;48.810;9.282;2023-04-24T15:18:46;26.20;38.90
1367;DHT22;16877;48.810;9.282;2023-04-24T15:21:13;26.00;38.70
1367;DHT22;16877;48.810;9.282;2023-04-24T15:23:40;25.70;38.30
1367;DHT22;16877;48.810;9.282;2023-04-24T15:26:10;25.50;38.50
1367;DHT22;16877;48.810;9.282;2023-04-24T15:28:38;25.30;38.60
1367;DHT22;16877;48.810;9.282;2023-04-24T15:31:07;25.00;38.20
1367;DHT22;16877;48.810;9.282;2023-04-24T15:33:34;24.80;38.30
1367;DHT22;16877;48.810;9.282;2023-04-24T15:36:02;24.60;38.50
1367;DHT22;16877;48.810;9.282;2023-04-24T15:38:29;24.40;38.50
1367;DHT22;16877;48.810;9.282;2023-04-24T15:40:57;24.20;38.50
1367;DHT22;16877;48.810;9.282;2023-04-24T15:43:29;24.00;38.70
1367;DHT22;16877;48.810;9.282;2023-04-24T15:45:59;23.90;39.00
1367;DHT22;16877;48.810;9.282;2023-04-24T15:48:30;23.70;40.10
1367;DHT22;16877;48.810;9.282;2023-04-24T15:50:57;23.60;41.10
1367;DHT22;16877;48.810;9.282;2023-04-24T15:53:26;23.60;41.70
1367;DHT22;16877;48.810;9.282;2023-04-24T15:55:54;23.60;42.10
1367;DHT22;16877;48.810;9.282;2023-04-24T15:58:23;23.70;42.20
1367;DHT22;16877;48.810;9.282;2023-04-24T16:00:50;23.70;42.00